sensor_id;sensor_type;location;lat;lon;timestamp;pressure;altitude;pressure_sealevel;temperature;humidity
21658;BME280;10990;48.174;9.782;2023-05-12T00:01:59;92465.97;;;10.47;100.00
21658;BME280;10990;48.174;9.782;2023-05-12T00:04:27;92456.53;;;10.51;100.00
21658;BME280;10990;48.174;9.782;2023-05-12T00:06:54;92463.75;;;10.44;100.00
21658;BME280;10990;48.174;9.782;2023-05-12T00:09:21;92462.72;;;10.34;100.00
21658;BME280;10990;48.174;9.782;2023-05-12T00:11:47;92470.22;;;10.18;100.00
21658;BME280;10990;48.174;9.782;2023-05-12T00:14:14;92443.00;;;10.18;100.00
21658;BME280;10990;48.174;9.782;2023-05-12T00:16:41;92440.25;;;10.13;100.00
21658;BME280;10990;48.174;9.782;2023-05-12T00:19:08;92420.38;;;10.22;100.00
21658;BME280;10990;48.174;9.782;2023-05-12T00:21:36;92408.81;;;10.23;100.00
21658;BME280;10990;48.174;9.782;2023-05-12T00:24:03;92391.03;;;10.30;100.00
21658;BME280;10990;48.174;9.782;2023-05-12T00:26:30;92402.59;;;10.17;100.00
21658;BME280;10990;48.174;9.782;2023-05-12T00:28:57;92407.03;;;10.05;100.00
21658;BME280;10990;48.174;9.782;2023-05-12T00:31:23;92392.91;;;9.99;100.00
21658;BME280;10990;48.174;9.782;2023-05-12T00:33:50;92373.88;;;10.09;100.00
21658;BME280;10990;48.174;9.782;2023-05-12T00:36:17;92349.47;;;10.14;100.00
21658;BME280;10990;48.174;9.782;2023-05-12T00:38:45;92339.00;;;10.19;100.00
21658;BME280;10990;48.174;9.782;2023-05-12T00:41:12;92327.09;;;10.28;100.00
21658;BME280;10990;48.174;9.782;2023-05-12T00:43:39;92311.47;;;10.38;100.00
21658;BME280;10990;48.174;9.782;2023-05-12T00:46:05;92308.25;;;10.48;100.00
21658;BME280;10990;48.174;9.782;2023-05-12T00:48:34;92330.31;;;10.30;100.00
21658;BME280;10990;48.174;9.782;2023-05-12T00:51:01;92339.69;;;10.14;100.00
21658;BME280;10990;48.174;9.782;2023-05-12T00:53:30;92330.97;;;10.14;100.00
21658;BME280;10990;48.174;9.782;2023-05-12T00:55:58;92313.19;;;10.32;100.00
21658;BME280;10990;48.174;9.782;2023-05-12T00:58:26;92303.22;;;10.35;100.00
21658;BME280;10990;48.174;9.782;2023-05-12T01:00:53;92304.34;;;10.39;100.00
21658;BME280;10990;48.174;9.782;2023-05-12T01:03:21;92308.38;;;10.41;100.00
21658;BME280;10990;48.174;9.782;2023-05-12T01:05:50;92304.25;;;10.45;100.00
21658;BME280;10990;48.174;9.782;2023-05-12T01:08:18;92292.97;;;10.62;100.00
21658;BME280;10990;48.174;9.782;2023-05-12T01:10:46;92302.38;;;10.58;100.00
21658;BME280;10990;48.174;9.782;2023-05-12T01:13:16;92326.84;;;10.29;100.00
21658;BME280;10990;48.174;9.782;2023-05-12T01:15:46;92327.31;;;10.38;100.00
21658;BME280;10990;48.174;9.782;2023-05-12T01:18:14;92315.94;;;10.49;100.00
21658;BME280;10990;48.174;9.782;2023-05-12T01:20:42;92310.75;;;10.66;100.00
21658;BME280;10990;48.174;9.782;2023-05-12T01:23:10;92314.44;;;10.65;100.00
21658;BME280;10990;48.174;9.782;2023-05-12T01:25:40;92315.56;;;10.69;100.00
21658;BME280;10990;48.174;9.782;2023-05-12T01:28:09;92327.97;;;10.69;100.00
21658;BME280;10990;48.174;9.782;2023-05-12T01:30:38;92341.69;;;10.54;100.00
21658;BME280;10990;48.174;9.782;2023-05-12T01:33:07;92362.66;;;10.25;100.00
21658;BME280;10990;48.174;9.782;2023-05-12T01:35:34;92342.25;;;10.32;100.00
21658;BME280;10990;48.174;9.782;2023-05-12T01:38:01;92327.69;;;10.42;100.00
21658;BME280;10990;48.174;9.782;2023-05-12T01:40:30;92330.75;;;10.39;100.00
21658;BME280;10990;48.174;9.782;2023-05-12T01:42:58;92315.28;;;10.42;100.00
21658;BME280;10990;48.174;9.782;2023-05-12T01:45:30;92310.44;;;10.51;100.00
21658;BME280;10990;48.174;9.782;2023-05-12T01:47:57;92314.47;;;10.42;100.00
21658;BME280;10990;48.174;9.782;2023-05-12T01:50:24;92331.19;;;10.24;100.00
21658;BME280;10990;48.174;9.782;2023-05-12T01:52:51;92328.69;;;10.17;100.00
21658;BME280;10990;48.174;9.782;2023-05-12T01:55:19;92317.31;;;10.17;100.00
21658;BME280;10990;48.174;9.782;2023-05-12T01:57:52;92310.88;;;10.13;100.00
21658;BME280;10990;48.174;9.782;2023-05-12T02:00:19;92310.06;;;10.12;100.00
21658;BME280;10990;48.174;9.782;2023-05-12T02:02:49;92303.41;;;10.09;100.00
21658;BME280;10990;48.174;9.782;2023-05-12T02:05:16;92291.81;;;10.10;100.00
21658;BME280;10990;48.174;9.782;2023-05-12T02:07:46;92288.47;;;10.15;100.00
21658;BME280;10990;48.174;9.782;2023-05-12T02:10:13;92281.94;;;10.18;100.00
21658;BME280;10990;48.174;9.782;2023-05-12T02:12:40;92287.22;;;10.06;100.00
21658;BME280;10990;48.174;9.782;2023-05-12T02:15:08;92269.44;;;10.01;100.00
21658;BME280;10990;48.174;9.782;2023-05-12T02:17:38;92280.31;;;9.93;100.00
21658;BME280;10990;48.174;9.782;2023-05-12T02:20:09;92262.78;;;9.99;100.00
21658;BME280;10990;48.174;9.782;2023-05-12T02:22:37;92257.03;;;9.90;100.00
21658;BME280;10990;48.174;9.782;2023-05-12T02:25:05;92226.72;;;10.04;100.00
21658;BME280;10990;48.174;9.782;2023-05-12T02:27:33;92225.13;;;10.15;100.00
21658;BME280;10990;48.174;9.782;2023-05-12T02:30:00;92237.06;;;10.06;100.00
21658;BME280;10990;48.174;9.782;2023-05-12T02:32:27;92241.66;;;9.99;100.00
21658;BME280;10990;48.174;9.782;2023-05-12T02:34:54;92238.09;;;10.05;100.00
21658;BME280;10990;48.174;9.782;2023-05-12T02:37:23;92235.56;;;10.10;100.00
21658;BME280;10990;48.174;9.782;2023-05-12T02:39:50;92231.19;;;10.16;100.00
21658;BME280;10990;48.174;9.782;2023-05-12T02:42:17;92243.81;;;10.02;100.00
21658;BME280;10990;48.174;9.782;2023-05-12T02:44:44;92234.88;;;10.03;100.00
21658;BME280;10990;48.174;9.782;2023-05-12T02:47:11;92229.84;;;10.01;100.00
21658;BME280;10990;48.174;9.782;2023-05-12T02:49:38;92226.19;;;10.02;100.00
21658;BME280;10990;48.174;9.782;2023-05-12T02:52:05;92215.25;;;10.10;100.00
21658;BME280;10990;48.174;9.782;2023-05-12T02:54:33;92204.09;;;10.32;100.00
21658;BME280;10990;48.174;9.782;2023-05-12T02:57:03;92207.31;;;10.22;100.00
21658;BME280;10990;48.174;9.782;2023-05-12T02:59:30;92205.38;;;10.29;100.00
21658;BME280;10990;48.174;9.782;2023-05-12T03:01:57;92220.88;;;10.26;100.00
21658;BME280;10990;48.174;9.782;2023-05-12T03:04:24;92220.28;;;10.24;100.00
21658;BME280;10990;48.174;9.782;2023-05-12T03:06:50;92233.28;;;10.14;100.00
21658;BME280;10990;48.174;9.782;2023-05-12T03:09:17;92217.66;;;10.36;100.00
21658;BME280;10990;48.174;9.782;2023-05-12T03:11:45;92229.94;;;10.42;100.00
21658;BME280;10990;48.174;9.782;2023-05-12T03:14:12;92230.94;;;10.52;100.00
21658;BME280;10990;48.174;9.782;2023-05-12T03:16:39;92257.25;;;10.36;100.00
21658;BME280;10990;48.174;9.782;2023-05-12T03:19:06;92249.69;;;10.51;100.00
21658;BME280;10990;48.174;9.782;2023-05-12T03:21:32;92246.09;;;10.57;100.00
21658;BME280;10990;48.174;9.782;2023-05-12T03:24:00;92271.97;;;10.43;100.00
21658;BME280;10990;48.174;9.782;2023-05-12T03:26:26;92284.59;;;10.29;100.00
21658;BME280;10990;48.174;9.782;2023-05-12T03:28:55;92294.22;;;10.24;100.00
21658;BME280;10990;48.174;9.782;2023-05-12T03:31:21;92287.34;;;10.35;100.00
21658;BME280;10990;48.174;9.782;2023-05-12T03:33:49;92284.94;;;10.33;100.00
21658;BME280;10990;48.174;9.782;2023-05-12T03:36:15;92276.09;;;10.51;100.00
21658;BME280;10990;48.174;9.782;2023-05-12T03:38:42;92273.19;;;10.52;100.00
21658;BME280;10990;48.174;9.782;2023-05-12T03:41:12;92285.84;;;10.39;100.00
21658;BME280;10990;48.174;9.782;2023-05-12T03:43:38;92289.41;;;10.32;100.00
21658;BME280;10990;48.174;9.782;2023-05-12T03:46:06;92286.69;;;10.39;100.00
21658;BME280;10990;48.174;9.782;2023-05-12T03:48:35;92304.72;;;10.30;100.00
21658;BME280;10990;48.174;9.782;2023-05-12T03:51:02;92295.88;;;10.37;100.00
21658;BME280;10990;48.174;9.782;2023-05-12T03:53:29;92300.09;;;10.38;100.00
21658;BME280;10990;48.174;9.782;2023-05-12T03:55:56;92295.59;;;10.50;100.00
21658;BME280;10990;48.174;9.782;2023-05-12T03:58:23;92298.69;;;10.59;100.00
21658;BME280;10990;48.174;9.782;2023-05-12T04:00:50;92332.59;;;10.38;100.00
21658;BME280;10990;48.174;9.782;2023-05-12T04:03:18;92326.63;;;10.54;100.00
21658;BME280;10990;48.174;9.782;2023-05-12T04:05:44;92328.00;;;10.57;100.00
21658;BME280;10990;48.174;9.782;2023-05-12T04:08:11;92355.91;;;10.41;100.00
21658;BME280;10990;48.174;9.782;2023-05-12T04:10:38;92352.59;;;10.46;100.00
21658;BME280;10990;48.174;9.782;2023-05-12T04:13:05;92346.03;;;10.60;100.00
21658;BME280;10990;48.174;9.782;2023-05-12T04:15:33;92370.50;;;10.44;100.00
21658;BME280;10990;48.174;9.782;2023-05-12T04:18:00;92345.69;;;10.57;100.00
21658;BME280;10990;48.174;9.782;2023-05-12T04:20:28;92347.75;;;10.66;100.00
21658;BME280;10990;48.174;9.782;2023-05-12T04:22:55;92357.72;;;10.64;100.00
21658;BME280;10990;48.174;9.782;2023-05-12T04:25:22;92380.84;;;10.57;100.00
21658;BME280;10990;48.174;9.782;2023-05-12T04:27:48;92399.56;;;10.55;100.00
21658;BME280;10990;48.174;9.782;2023-05-12T04:30:15;92411.97;;;10.43;100.00
21658;BME280;10990;48.174;9.782;2023-05-12T04:32:42;92400.13;;;10.58;100.00
21658;BME280;10990;48.174;9.782;2023-05-12T04:35:10;92425.03;;;10.38;100.00
21658;BME280;10990;48.174;9.782;2023-05-12T04:37:38;92424.06;;;10.21;100.00
21658;BME280;10990;48.174;9.782;2023-05-12T04:40:07;92408.34;;;10.26;100.00
21658;BME280;10990;48.174;9.782;2023-05-12T04:42:34;92404.81;;;10.32;100.00
21658;BME280;10990;48.174;9.782;2023-05-12T04:45:01;92396.69;;;10.34;100.00
21658;BME280;10990;48.174;9.782;2023-05-12T04:47:28;92403.53;;;10.23;100.00
21658;BME280;10990;48.174;9.782;2023-05-12T04:49:55;92392.63;;;10.19;100.00
21658;BME280;10990;48.174;9.782;2023-05-12T04:52:22;92382.63;;;10.21;100.00
21658;BME280;10990;48.174;9.782;2023-05-12T04:54:51;92396.59;;;9.98;100.00
21658;BME280;10990;48.174;9.782;2023-05-12T04:57:17;92373.44;;;10.12;100.00
21658;BME280;10990;48.174;9.782;2023-05-12T04:59:44;92372.03;;;10.09;100.00
21658;BME280;10990;48.174;9.782;2023-05-12T05:02:11;92349.91;;;10.22;100.00
21658;BME280;10990;48.174;9.782;2023-05-12T05:04:38;92351.66;;;10.40;100.00
21658;BME280;10990;48.174;9.782;2023-05-12T05:07:05;92367.72;;;10.39;100.00
21658;BME280;10990;48.174;9.782;2023-05-12T05:09:35;92364.19;;;10.57;100.00
21658;BME280;10990;48.174;9.782;2023-05-12T05:12:03;92370.25;;;10.69;100.00
21658;BME280;10990;48.174;9.782;2023-05-12T05:14:31;92395.88;;;10.68;100.00
21658;BME280;10990;48.174;9.782;2023-05-12T05:16:58;92426.81;;;10.56;100.00
21658;BME280;10990;48.174;9.782;2023-05-12T05:19:25;92441.75;;;10.62;100.00
21658;BME280;10990;48.174;9.782;2023-05-12T05:21:52;92444.50;;;10.79;100.00
21658;BME280;10990;48.174;9.782;2023-05-12T05:24:19;92456.34;;;10.88;100.00
21658;BME280;10990;48.174;9.782;2023-05-12T05:26:46;92490.56;;;10.71;100.00
21658;BME280;10990;48.174;9.782;2023-05-12T05:29:14;92507.56;;;10.75;100.00
21658;BME280;10990;48.174;9.782;2023-05-12T05:31:41;92515.06;;;10.90;100.00
21658;BME280;10990;48.174;9.782;2023-05-12T05:34:09;92536.91;;;10.97;100.00
21658;BME280;10990;48.174;9.782;2023-05-12T05:36:36;92540.47;;;11.15;100.00
21658;BME280;10990;48.174;9.782;2023-05-12T05:39:03;92578.88;;;11.06;100.00
21658;BME280;10990;48.174;9.782;2023-05-12T05:41:30;92588.00;;;11.21;100.00
21658;BME280;10990;48.174;9.782;2023-05-12T05:43:56;92600.41;;;11.33;100.00
21658;BME280;10990;48.174;9.782;2023-05-12T05:46:24;92635.03;;;11.19;100.00
21658;BME280;10990;48.174;9.782;2023-05-12T05:48:51;92678.41;;;10.88;100.00
21658;BME280;10990;48.174;9.782;2023-05-12T05:51:18;92679.59;;;11.04;100.00
21658;BME280;10990;48.174;9.782;2023-05-12T05:53:45;92717.59;;;10.91;100.00
21658;BME280;10990;48.174;9.782;2023-05-12T05:56:13;92733.50;;;10.73;100.00
21658;BME280;10990;48.174;9.782;2023-05-12T05:58:40;92712.31;;;10.91;100.00
21658;BME280;10990;48.174;9.782;2023-05-12T06:01:07;92730.97;;;10.96;100.00
21658;BME280;10990;48.174;9.782;2023-05-12T06:03:35;92757.41;;;11.27;100.00
21658;BME280;10990;48.174;9.782;2023-05-12T06:06:02;92807.09;;;11.06;100.00
21658;BME280;10990;48.174;9.782;2023-05-12T06:08:29;92847.88;;;11.17;100.00
21658;BME280;10990;48.174;9.782;2023-05-12T06:10:56;92854.25;;;11.46;100.00
21658;BME280;10990;48.174;9.782;2023-05-12T06:13:23;92895.41;;;11.42;100.00
21658;BME280;10990;48.174;9.782;2023-05-12T06:15:50;92931.84;;;11.58;100.00
21658;BME280;10990;48.174;9.782;2023-05-12T06:18:16;92929.78;;;12.09;100.00
21658;BME280;10990;48.174;9.782;2023-05-12T06:20:45;92967.47;;;12.23;100.00
21658;BME280;10990;48.174;9.782;2023-05-12T06:23:11;93028.84;;;12.08;100.00
21658;BME280;10990;48.174;9.782;2023-05-12T06:25:38;93058.47;;;12.17;100.00
21658;BME280;10990;48.174;9.782;2023-05-12T06:28:05;93105.34;;;12.65;100.00
21658;BME280;10990;48.174;9.782;2023-05-12T06:30:33;93178.03;;;12.75;100.00
21658;BME280;10990;48.174;9.782;2023-05-12T06:33:00;93224.28;;;12.79;100.00
21658;BME280;10990;48.174;9.782;2023-05-12T06:35:27;93269.47;;;13.03;100.00
21658;BME280;10990;48.174;9.782;2023-05-12T06:37:55;93306.41;;;13.41;100.00
21658;BME280;10990;48.174;9.782;2023-05-12T06:40:21;93405.72;;;13.34;100.00
21658;BME280;10990;48.174;9.782;2023-05-12T06:42:48;93474.56;;;13.35;100.00
21658;BME280;10990;48.174;9.782;2023-05-12T06:45:18;93536.00;;;13.57;100.00
21658;BME280;10990;48.174;9.782;2023-05-12T06:47:45;93601.25;;;13.21;100.00
21658;BME280;10990;48.174;9.782;2023-05-12T06:50:12;93685.50;;;12.56;100.00
21658;BME280;10990;48.174;9.782;2023-05-12T06:52:39;93680.13;;;12.76;100.00
21658;BME280;10990;48.174;9.782;2023-05-12T06:55:08;93725.31;;;12.43;100.00
21658;BME280;10990;48.174;9.782;2023-05-12T06:57:35;93774.28;;;12.33;100.00
21658;BME280;10990;48.174;9.782;2023-05-12T07:00:02;93807.03;;;12.72;100.00
21658;BME280;10990;48.174;9.782;2023-05-12T07:02:29;93852.25;;;12.97;100.00
21658;BME280;10990;48.174;9.782;2023-05-12T07:04:56;93886.13;;;13.02;100.00
21658;BME280;10990;48.174;9.782;2023-05-12T07:07:22;93884.03;;;13.31;100.00
21658;BME280;10990;48.174;9.782;2023-05-12T07:09:49;93910.25;;;12.87;100.00
21658;BME280;10990;48.174;9.782;2023-05-12T07:12:17;93917.81;;;12.90;100.00
21658;BME280;10990;48.174;9.782;2023-05-12T07:14:44;93927.41;;;12.85;100.00
21658;BME280;10990;48.174;9.782;2023-05-12T07:17:10;93942.31;;;12.66;100.00
21658;BME280;10990;48.174;9.782;2023-05-12T07:19:37;93931.50;;;12.41;100.00
21658;BME280;10990;48.174;9.782;2023-05-12T07:22:04;93916.22;;;12.56;100.00
21658;BME280;10990;48.174;9.782;2023-05-12T07:24:31;93943.53;;;12.56;100.00
21658;BME280;10990;48.174;9.782;2023-05-12T07:26:58;93936.19;;;12.72;100.00
21658;BME280;10990;48.174;9.782;2023-05-12T07:29:26;93920.28;;;12.59;100.00
21658;BME280;10990;48.174;9.782;2023-05-12T07:31:53;93930.88;;;12.52;100.00
21658;BME280;10990;48.174;9.782;2023-05-12T07:34:19;93902.25;;;13.00;100.00
21658;BME280;10990;48.174;9.782;2023-05-12T07:36:46;93928.19;;;12.92;100.00
21658;BME280;10990;48.174;9.782;2023-05-12T07:39:13;93955.06;;;13.42;100.00
21658;BME280;10990;48.174;9.782;2023-05-12T07:41:43;93982.25;;;13.17;100.00
21658;BME280;10990;48.174;9.782;2023-05-12T07:44:10;94002.69;;;13.23;100.00
21658;BME280;10990;48.174;9.782;2023-05-12T07:46:38;94043.53;;;13.16;100.00
21658;BME280;10990;48.174;9.782;2023-05-12T07:49:05;94073.38;;;13.38;100.00
21658;BME280;10990;48.174;9.782;2023-05-12T07:51:31;94130.94;;;13.37;100.00
21658;BME280;10990;48.174;9.782;2023-05-12T07:53:58;94142.59;;;13.43;100.00
21658;BME280;10990;48.174;9.782;2023-05-12T07:56:25;94191.00;;;13.98;100.00
21658;BME280;10990;48.174;9.782;2023-05-12T07:58:52;94268.50;;;13.68;100.00
21658;BME280;10990;48.174;9.782;2023-05-12T08:01:19;94244.78;;;13.80;100.00
21658;BME280;10990;48.174;9.782;2023-05-12T08:03:47;94253.56;;;14.21;100.00
21658;BME280;10990;48.174;9.782;2023-05-12T08:06:15;94277.66;;;13.46;100.00
21658;BME280;10990;48.174;9.782;2023-05-12T08:08:42;94246.00;;;13.71;100.00
21658;BME280;10990;48.174;9.782;2023-05-12T08:11:09;94274.19;;;14.32;100.00
21658;BME280;10990;48.174;9.782;2023-05-12T08:13:35;94365.22;;;14.27;100.00
21658;BME280;10990;48.174;9.782;2023-05-12T08:16:03;94417.28;;;13.68;100.00
21658;BME280;10990;48.174;9.782;2023-05-12T08:18:30;94431.13;;;13.57;100.00
21658;BME280;10990;48.174;9.782;2023-05-12T08:20:58;94442.53;;;13.16;100.00
21658;BME280;10990;48.174;9.782;2023-05-12T08:23:24;94412.34;;;13.65;100.00
21658;BME280;10990;48.174;9.782;2023-05-12T08:25:51;94392.22;;;14.24;100.00
21658;BME280;10990;48.174;9.782;2023-05-12T08:28:18;94435.03;;;15.09;100.00
21658;BME280;10990;48.174;9.782;2023-05-12T08:30:44;94520.03;;;14.03;100.00
21658;BME280;10990;48.174;9.782;2023-05-12T08:33:11;94483.28;;;14.20;100.00
21658;BME280;10990;48.174;9.782;2023-05-12T08:35:38;94450.84;;;14.64;100.00
21658;BME280;10990;48.174;9.782;2023-05-12T08:38:06;94469.66;;;14.69;100.00
21658;BME280;10990;48.174;9.782;2023-05-12T08:40:53;94485.44;;;14.91;100.00
21658;BME280;10990;48.174;9.782;2023-05-12T08:43:23;94503.44;;;14.82;100.00
21658;BME280;10990;48.174;9.782;2023-05-12T08:45:51;94539.47;;;14.78;100.00
21658;BME280;10990;48.174;9.782;2023-05-12T08:48:21;94538.88;;;15.02;100.00
21658;BME280;10990;48.174;9.782;2023-05-12T08:50:52;94571.41;;;14.78;100.00
21658;BME280;10990;48.174;9.782;2023-05-12T08:53:21;94561.78;;;14.09;100.00
21658;BME280;10990;48.174;9.782;2023-05-12T08:55:49;94534.41;;;13.74;100.00
21658;BME280;10990;48.174;9.782;2023-05-12T08:58:17;94473.84;;;14.17;100.00
21658;BME280;10990;48.174;9.782;2023-05-12T09:00:44;94422.88;;;14.00;100.00
21658;BME280;10990;48.174;9.782;2023-05-12T09:03:12;94402.28;;;14.22;100.00
21658;BME280;10990;48.174;9.782;2023-05-12T09:05:39;94414.16;;;14.99;100.00
21658;BME280;10990;48.174;9.782;2023-05-12T09:08:08;94449.38;;;14.68;100.00
21658;BME280;10990;48.174;9.782;2023-05-12T09:10:36;94433.19;;;14.43;100.00
21658;BME280;10990;48.174;9.782;2023-05-12T09:13:24;94443.63;;;14.45;100.00
21658;BME280;10990;48.174;9.782;2023-05-12T09:15:53;94445.47;;;14.51;100.00
21658;BME280;10990;48.174;9.782;2023-05-12T09:18:23;94442.44;;;14.54;100.00
21658;BME280;10990;48.174;9.782;2023-05-12T09:20:49;94416.03;;;14.92;100.00
21658;BME280;10990;48.174;9.782;2023-05-12T09:23:17;94437.50;;;14.97;100.00
21658;BME280;10990;48.174;9.782;2023-05-12T09:25:46;94451.44;;;14.66;100.00
21658;BME280;10990;48.174;9.782;2023-05-12T09:28:13;94444.06;;;14.82;100.00
21658;BME280;10990;48.174;9.782;2023-05-12T09:30:40;94468.31;;;14.12;100.00
21658;BME280;10990;48.174;9.782;2023-05-12T09:33:08;94434.91;;;13.83;100.00
21658;BME280;10990;48.174;9.782;2023-05-12T09:35:39;94379.97;;;14.37;100.00
21658;BME280;10990;48.174;9.782;2023-05-12T09:38:07;94402.22;;;13.96;100.00
21658;BME280;10990;48.174;9.782;2023-05-12T09:40:34;94387.53;;;14.46;100.00
21658;BME280;10990;48.174;9.782;2023-05-12T09:43:02;94373.59;;;14.04;100.00
21658;BME280;10990;48.174;9.782;2023-05-12T09:45:32;94365.63;;;14.04;100.00
21658;BME280;10990;48.174;9.782;2023-05-12T09:48:06;94362.97;;;14.04;100.00
21658;BME280;10990;48.174;9.782;2023-05-12T09:50:42;94395.06;;;13.96;100.00
21658;BME280;10990;48.174;9.782;2023-05-12T09:53:10;94388.31;;;14.00;100.00
21658;BME280;10990;48.174;9.782;2023-05-12T09:55:36;94401.88;;;13.51;100.00
21658;BME280;10990;48.174;9.782;2023-05-12T09:58:08;94363.13;;;13.21;100.00
21658;BME280;10990;48.174;9.782;2023-05-12T10:00:35;94315.81;;;13.38;100.00
21658;BME280;10990;48.174;9.782;2023-05-12T10:03:09;94305.13;;;13.25;100.00
21658;BME280;10990;48.174;9.782;2023-05-12T10:05:38;94268.66;;;13.47;100.00
21658;BME280;10990;48.174;9.782;2023-05-12T10:08:09;94272.94;;;13.41;100.00
21658;BME280;10990;48.174;9.782;2023-05-12T10:10:39;94270.69;;;13.38;100.00
21658;BME280;10990;48.174;9.782;2023-05-12T10:13:08;94334.41;;;12.97;100.00
21658;BME280;10990;48.174;9.782;2023-05-12T10:15:39;94322.97;;;13.38;100.00
21658;BME280;10990;48.174;9.782;2023-05-12T10:18:06;94320.97;;;13.47;100.00
21658;BME280;10990;48.174;9.782;2023-05-12T10:20:35;94333.16;;;13.34;100.00
21658;BME280;10990;48.174;9.782;2023-05-12T10:23:03;94309.56;;;13.66;100.00
21658;BME280;10990;48.174;9.782;2023-05-12T10:25:29;94323.03;;;13.58;100.00
21658;BME280;10990;48.174;9.782;2023-05-12T10:28:00;94302.41;;;13.73;100.00
21658;BME280;10990;48.174;9.782;2023-05-12T10:30:30;94321.22;;;13.78;100.00
21658;BME280;10990;48.174;9.782;2023-05-12T10:32:57;94346.13;;;13.57;100.00
21658;BME280;10990;48.174;9.782;2023-05-12T10:35:30;94287.31;;;13.87;100.00
21658;BME280;10990;48.174;9.782;2023-05-12T10:38:00;94290.38;;;13.97;100.00
21658;BME280;10990;48.174;9.782;2023-05-12T10:40:26;94267.69;;;13.95;100.00
21658;BME280;10990;48.174;9.782;2023-05-12T10:42:57;94304.50;;;13.91;100.00
21658;BME280;10990;48.174;9.782;2023-05-12T10:45:24;94282.16;;;14.39;100.00
21658;BME280;10990;48.174;9.782;2023-05-12T10:48:03;94335.53;;;13.90;100.00
21658;BME280;10990;48.174;9.782;2023-05-12T10:50:31;94354.38;;;13.89;100.00
21658;BME280;10990;48.174;9.782;2023-05-12T10:52:57;94345.75;;;13.94;100.00
21658;BME280;10990;48.174;9.782;2023-05-12T10:55:32;94338.00;;;13.92;100.00
21658;BME280;10990;48.174;9.782;2023-05-12T10:58:08;94307.94;;;14.38;100.00
21658;BME280;10990;48.174;9.782;2023-05-12T11:00:43;94330.47;;;14.55;100.00
21658;BME280;10990;48.174;9.782;2023-05-12T11:03:12;94388.81;;;14.70;100.00
21658;BME280;10990;48.174;9.782;2023-05-12T11:05:41;94445.00;;;14.27;100.00
21658;BME280;10990;48.174;9.782;2023-05-12T11:08:08;94418.25;;;14.42;100.00
21658;BME280;10990;48.174;9.782;2023-05-12T11:10:36;94477.38;;;14.38;100.00
21658;BME280;10990;48.174;9.782;2023-05-12T11:13:02;94507.06;;;14.48;100.00
21658;BME280;10990;48.174;9.782;2023-05-12T11:15:29;94514.88;;;14.69;100.00
21658;BME280;10990;48.174;9.782;2023-05-12T11:17:56;94524.34;;;14.85;100.00
21658;BME280;10990;48.174;9.782;2023-05-12T11:20:25;94547.91;;;15.35;100.00
21658;BME280;10990;48.174;9.782;2023-05-12T11:22:52;94543.19;;;15.30;100.00
21658;BME280;10990;48.174;9.782;2023-05-12T11:25:19;94617.16;;;15.68;100.00
21658;BME280;10990;48.174;9.782;2023-05-12T11:27:47;94666.38;;;15.52;100.00
21658;BME280;10990;48.174;9.782;2023-05-12T11:30:14;94717.88;;;15.86;100.00
21658;BME280;10990;48.174;9.782;2023-05-12T11:32:41;94806.97;;;15.57;100.00
21658;BME280;10990;48.174;9.782;2023-05-12T11:35:12;94888.44;;;15.66;100.00
21658;BME280;10990;48.174;9.782;2023-05-12T11:37:42;94902.94;;;15.57;100.00
21658;BME280;10990;48.174;9.782;2023-05-12T11:40:16;94927.63;;;15.31;100.00
21658;BME280;10990;48.174;9.782;2023-05-12T11:42:44;94907.59;;;15.83;100.00
21658;BME280;10990;48.174;9.782;2023-05-12T11:45:24;94915.13;;;15.31;100.00
21658;BME280;10990;48.174;9.782;2023-05-12T11:47:52;94869.84;;;15.86;100.00
21658;BME280;10990;48.174;9.782;2023-05-12T11:50:20;94839.31;;;15.34;100.00
21658;BME280;10990;48.174;9.782;2023-05-12T11:52:49;94802.69;;;15.49;100.00
21658;BME280;10990;48.174;9.782;2023-05-12T11:55:21;94836.97;;;15.65;100.00
21658;BME280;10990;48.174;9.782;2023-05-12T11:57:57;94887.03;;;15.70;100.00
21658;BME280;10990;48.174;9.782;2023-05-12T12:00:31;94910.16;;;16.44;100.00
21658;BME280;10990;48.174;9.782;2023-05-12T12:03:08;94959.88;;;15.77;100.00
21658;BME280;10990;48.174;9.782;2023-05-12T12:05:35;94949.69;;;16.01;100.00
21658;BME280;10990;48.174;9.782;2023-05-12T12:08:08;94930.28;;;16.67;100.00
21658;BME280;10990;48.174;9.782;2023-05-12T12:10:37;94922.28;;;16.40;100.00
21658;BME280;10990;48.174;9.782;2023-05-12T12:13:04;94971.25;;;16.12;100.00
21658;BME280;10990;48.174;9.782;2023-05-12T12:15:31;94993.25;;;16.21;100.00
21658;BME280;10990;48.174;9.782;2023-05-12T12:17:57;95016.06;;;15.82;100.00
21658;BME280;10990;48.174;9.782;2023-05-12T12:20:24;95061.19;;;15.77;100.00
21658;BME280;10990;48.174;9.782;2023-05-12T12:22:52;95031.63;;;16.20;100.00
21658;BME280;10990;48.174;9.782;2023-05-12T12:25:20;95070.66;;;15.86;100.00
21658;BME280;10990;48.174;9.782;2023-05-12T12:27:47;95108.81;;;15.87;100.00
21658;BME280;10990;48.174;9.782;2023-05-12T12:30:15;95096.88;;;16.11;100.00
21658;BME280;10990;48.174;9.782;2023-05-12T12:32:42;95057.50;;;15.78;100.00
21658;BME280;10990;48.174;9.782;2023-05-12T12:35:10;95015.97;;;15.97;100.00
21658;BME280;10990;48.174;9.782;2023-05-12T12:37:37;94904.81;;;15.15;100.00
21658;BME280;10990;48.174;9.782;2023-05-12T12:40:05;94796.44;;;14.80;100.00
21658;BME280;10990;48.174;9.782;2023-05-12T12:42:36;94761.31;;;14.57;100.00
21658;BME280;10990;48.174;9.782;2023-05-12T12:45:06;94725.34;;;14.68;100.00
21658;BME280;10990;48.174;9.782;2023-05-12T12:47:34;94718.84;;;14.84;100.00
21658;BME280;10990;48.174;9.782;2023-05-12T12:50:02;94723.84;;;14.52;100.00
21658;BME280;10990;48.174;9.782;2023-05-12T12:52:29;94692.91;;;14.51;100.00
21658;BME280;10990;48.174;9.782;2023-05-12T12:54:56;94673.00;;;14.95;100.00